sensor_id;sensor_type;location;lat;lon;timestamp;temperature;humidity
31661;DHT22;18267;52.234;7.444;2024-02-28T00:02:21;2.80;99.90
31661;DHT22;18267;52.234;7.444;2024-02-28T00:04:47;2.80;99.90
31661;DHT22;18267;52.234;7.444;2024-02-28T00:07:13;2.90;99.90
31661;DHT22;18267;52.234;7.444;2024-02-28T00:09:38;2.90;99.90
31661;DHT22;18267;52.234;7.444;2024-02-28T00:12:04;3.00;99.90
31661;DHT22;18267;52.234;7.444;2024-02-28T00:14:29;3.10;99.90
31661;DHT22;18267;52.234;7.444;2024-02-28T00:16:55;3.10;99.90
31661;DHT22;18267;52.234;7.444;2024-02-28T00:19:20;3.10;99.90
31661;DHT22;18267;52.234;7.444;2024-02-28T00:21:47;3.00;99.90
31661;DHT22;18267;52.234;7.444;2024-02-28T00:24:13;3.00;99.90
31661;DHT22;18267;52.234;7.444;2024-02-28T00:26:42;3.00;99.90
31661;DHT22;18267;52.234;7.444;2024-02-28T00:29:08;3.10;99.90
31661;DHT22;18267;52.234;7.444;2024-02-28T00:31:34;2.90;99.90
31661;DHT22;18267;52.234;7.444;2024-02-28T00:33:59;2.90;99.90
31661;DHT22;18267;52.234;7.444;2024-02-28T00:36:25;3.10;99.90
31661;DHT22;18267;52.234;7.444;2024-02-28T00:38:51;3.20;99.90
31661;DHT22;18267;52.234;7.444;2024-02-28T00:41:16;3.00;99.90
31661;DHT22;18267;52.234;7.444;2024-02-28T00:43:42;2.90;99.90
31661;DHT22;18267;52.234;7.444;2024-02-28T00:46:07;2.90;99.90
31661;DHT22;18267;52.234;7.444;2024-02-28T00:48:39;2.80;99.90
31661;DHT22;18267;52.234;7.444;2024-02-28T00:51:05;2.70;99.90
31661;DHT22;18267;52.234;7.444;2024-02-28T00:53:31;2.70;99.90
31661;DHT22;18267;52.234;7.444;2024-02-28T00:55:56;2.60;99.90
31661;DHT22;18267;52.234;7.444;2024-02-28T00:58:22;2.70;99.90
31661;DHT22;18267;52.234;7.444;2024-02-28T01:00:48;2.80;99.90
31661;DHT22;18267;52.234;7.444;2024-02-28T01:03:14;2.90;99.90
31661;DHT22;18267;52.234;7.444;2024-02-28T01:05:41;2.90;99.90
31661;DHT22;18267;52.234;7.444;2024-02-28T01:08:07;2.80;99.90
31661;DHT22;18267;52.234;7.444;2024-02-28T01:10:33;2.80;99.90
31661;DHT22;18267;52.234;7.444;2024-02-28T01:12:59;2.80;99.90
31661;DHT22;18267;52.234;7.444;2024-02-28T01:15:25;2.80;99.90
31661;DHT22;18267;52.234;7.444;2024-02-28T01:17:50;2.90;99.90
31661;DHT22;18267;52.234;7.444;2024-02-28T01:20:16;2.90;99.90
31661;DHT22;18267;52.234;7.444;2024-02-28T01:22:41;3.00;99.90
31661;DHT22;18267;52.234;7.444;2024-02-28T01:25:07;3.00;99.90
31661;DHT22;18267;52.234;7.444;2024-02-28T01:27:33;3.00;99.90
31661;DHT22;18267;52.234;7.444;2024-02-28T01:29:58;3.00;99.90
31661;DHT22;18267;52.234;7.444;2024-02-28T01:32:24;3.00;99.90
31661;DHT22;18267;52.234;7.444;2024-02-28T01:34:50;3.00;99.90
31661;DHT22;18267;52.234;7.444;2024-02-28T01:37:15;3.20;99.90
31661;DHT22;18267;52.234;7.444;2024-02-28T01:39:41;3.20;99.90
31661;DHT22;18267;52.234;7.444;2024-02-28T01:42:07;3.10;99.90
31661;DHT22;18267;52.234;7.444;2024-02-28T01:44:39;3.10;99.90
31661;DHT22;18267;52.234;7.444;2024-02-28T01:47:06;3.20;99.90
31661;DHT22;18267;52.234;7.444;2024-02-28T01:49:32;3.10;99.90
31661;DHT22;18267;52.234;7.444;2024-02-28T01:51:58;3.20;99.90
31661;DHT22;18267;52.234;7.444;2024-02-28T01:54:24;3.20;99.90
31661;DHT22;18267;52.234;7.444;2024-02-28T01:56:50;3.30;99.90
31661;DHT22;18267;52.234;7.444;2024-02-28T01:59:16;3.30;99.90
31661;DHT22;18267;52.234;7.444;2024-02-28T02:01:42;3.30;99.90
31661;DHT22;18267;52.234;7.444;2024-02-28T02:04:08;3.30;99.90
31661;DHT22;18267;52.234;7.444;2024-02-28T02:06:37;3.20;99.90
31661;DHT22;18267;52.234;7.444;2024-02-28T02:09:03;3.20;99.90
31661;DHT22;18267;52.234;7.444;2024-02-28T02:11:29;3.10;99.90
31661;DHT22;18267;52.234;7.444;2024-02-28T02:13:54;3.20;99.90
31661;DHT22;18267;52.234;7.444;2024-02-28T02:16:21;3.20;99.90
31661;DHT22;18267;52.234;7.444;2024-02-28T02:18:51;3.20;99.90
31661;DHT22;18267;52.234;7.444;2024-02-28T02:21:23;3.00;99.90
31661;DHT22;18267;52.234;7.444;2024-02-28T02:23:49;3.00;99.90
31661;DHT22;18267;52.234;7.444;2024-02-28T02:26:15;2.90;99.90
31661;DHT22;18267;52.234;7.444;2024-02-28T02:28:41;2.80;99.90
31661;DHT22;18267;52.234;7.444;2024-02-28T02:31:06;2.90;99.90
31661;DHT22;18267;52.234;7.444;2024-02-28T02:33:32;3.00;99.90
31661;DHT22;18267;52.234;7.444;2024-02-28T02:35:58;3.10;99.90
31661;DHT22;18267;52.234;7.444;2024-02-28T02:38:24;3.20;99.90
31661;DHT22;18267;52.234;7.444;2024-02-28T02:40:50;3.20;99.90
31661;DHT22;18267;52.234;7.444;2024-02-28T02:43:16;3.30;99.90
31661;DHT22;18267;52.234;7.444;2024-02-28T02:45:42;3.30;99.90
31661;DHT22;18267;52.234;7.444;2024-02-28T02:48:08;3.20;99.90
31661;DHT22;18267;52.234;7.444;2024-02-28T02:50:34;3.30;99.90
31661;DHT22;18267;52.234;7.444;2024-02-28T02:52:59;3.40;99.90
31661;DHT22;18267;52.234;7.444;2024-02-28T02:55:25;3.40;99.90
31661;DHT22;18267;52.234;7.444;2024-02-28T02:57:51;3.40;99.90
31661;DHT22;18267;52.234;7.444;2024-02-28T03:00:16;3.50;99.90
31661;DHT22;18267;52.234;7.444;2024-02-28T03:02:42;3.40;99.90
31661;DHT22;18267;52.234;7.444;2024-02-28T03:05:08;3.40;99.90
31661;DHT22;18267;52.234;7.444;2024-02-28T03:07:33;3.40;99.90
31661;DHT22;18267;52.234;7.444;2024-02-28T03:09:59;3.30;99.90
31661;DHT22;18267;52.234;7.444;2024-02-28T03:12:24;3.20;99.90
31661;DHT22;18267;52.234;7.444;2024-02-28T03:14:50;3.20;99.90
31661;DHT22;18267;52.234;7.444;2024-02-28T03:17:15;3.30;99.90
31661;DHT22;18267;52.234;7.444;2024-02-28T03:19:42;3.30;99.90
31661;DHT22;18267;52.234;7.444;2024-02-28T03:22:07;3.30;99.90
31661;DHT22;18267;52.234;7.444;2024-02-28T03:24:33;3.20;99.90
31661;DHT22;18267;52.234;7.444;2024-02-28T03:27:02;3.20;99.90
31661;DHT22;18267;52.234;7.444;2024-02-28T03:29:27;3.30;99.90
31661;DHT22;18267;52.234;7.444;2024-02-28T03:31:53;3.20;99.90
31661;DHT22;18267;52.234;7.444;2024-02-28T03:34:19;3.10;99.90
31661;DHT22;18267;52.234;7.444;2024-02-28T03:36:44;3.20;99.90
31661;DHT22;18267;52.234;7.444;2024-02-28T03:39:10;3.30;99.90
31661;DHT22;18267;52.234;7.444;2024-02-28T03:41:36;3.40;99.90
31661;DHT22;18267;52.234;7.444;2024-02-28T03:44:01;3.50;99.90
31661;DHT22;18267;52.234;7.444;2024-02-28T03:46:27;3.40;99.90
31661;DHT22;18267;52.234;7.444;2024-02-28T03:48:52;3.30;99.90
31661;DHT22;18267;52.234;7.444;2024-02-28T03:51:18;3.40;99.90
31661;DHT22;18267;52.234;7.444;2024-02-28T03:53:43;3.50;99.90
31661;DHT22;18267;52.234;7.444;2024-02-28T03:56:09;3.60;99.90
31661;DHT22;18267;52.234;7.444;2024-02-28T03:58:35;3.60;99.90
31661;DHT22;18267;52.234;7.444;2024-02-28T04:01:00;3.60;99.90
31661;DHT22;18267;52.234;7.444;2024-02-28T04:03:26;3.60;99.90
31661;DHT22;18267;52.234;7.444;2024-02-28T04:05:51;3.70;99.90
31661;DHT22;18267;52.234;7.444;2024-02-28T04:08:17;3.70;99.90
31661;DHT22;18267;52.234;7.444;2024-02-28T04:10:42;3.60;99.90
31661;DHT22;18267;52.234;7.444;2024-02-28T04:13:08;3.60;99.90
31661;DHT22;18267;52.234;7.444;2024-02-28T04:15:34;3.70;99.90
31661;DHT22;18267;52.234;7.444;2024-02-28T04:18:00;3.70;99.90
31661;DHT22;18267;52.234;7.444;2024-02-28T04:20:26;3.60;99.90
31661;DHT22;18267;52.234;7.444;2024-02-28T04:22:52;3.60;99.90
31661;DHT22;18267;52.234;7.444;2024-02-28T04:25:17;3.60;99.90
31661;DHT22;18267;52.234;7.444;2024-02-28T04:27:43;3.60;99.90
31661;DHT22;18267;52.234;7.444;2024-02-28T04:30:09;3.70;99.90
31661;DHT22;18267;52.234;7.444;2024-02-28T04:32:36;3.60;99.90
31661;DHT22;18267;52.234;7.444;2024-02-28T04:35:01;3.60;99.90
31661;DHT22;18267;52.234;7.444;2024-02-28T04:37:28;3.50;99.90
31661;DHT22;18267;52.234;7.444;2024-02-28T04:39:53;3.50;99.90
31661;DHT22;18267;52.234;7.444;2024-02-28T04:42:19;3.50;99.90
31661;DHT22;18267;52.234;7.444;2024-02-28T04:44:45;3.50;99.90
31661;DHT22;18267;52.234;7.444;2024-02-28T04:47:10;3.50;99.90
31661;DHT22;18267;52.234;7.444;2024-02-28T04:49:37;3.60;99.90
31661;DHT22;18267;52.234;7.444;2024-02-28T04:52:04;3.50;99.90
31661;DHT22;18267;52.234;7.444;2024-02-28T04:54:30;3.50;99.90
31661;DHT22;18267;52.234;7.444;2024-02-28T04:56:55;3.50;99.90
31661;DHT22;18267;52.234;7.444;2024-02-28T04:59:21;3.50;99.90
31661;DHT22;18267;52.234;7.444;2024-02-28T05:01:46;3.60;99.90
31661;DHT22;18267;52.234;7.444;2024-02-28T05:04:13;3.60;99.90
31661;DHT22;18267;52.234;7.444;2024-02-28T05:06:39;3.60;99.90
31661;DHT22;18267;52.234;7.444;2024-02-28T05:09:04;3.50;99.90
31661;DHT22;18267;52.234;7.444;2024-02-28T05:11:30;3.60;99.90
31661;DHT22;18267;52.234;7.444;2024-02-28T05:13:56;3.60;99.90
31661;DHT22;18267;52.234;7.444;2024-02-28T05:16:21;3.50;99.90
31661;DHT22;18267;52.234;7.444;2024-02-28T05:18:47;3.40;99.90
31661;DHT22;18267;52.234;7.444;2024-02-28T05:21:13;3.40;99.90
31661;DHT22;18267;52.234;7.444;2024-02-28T05:23:40;3.40;99.90
31661;DHT22;18267;52.234;7.444;2024-02-28T05:26:05;3.30;99.90
31661;DHT22;18267;52.234;7.444;2024-02-28T05:28:33;3.30;99.90
31661;DHT22;18267;52.234;7.444;2024-02-28T05:31:03;3.40;99.90
31661;DHT22;18267;52.234;7.444;2024-02-28T05:33:44;3.30;99.90
31661;DHT22;18267;52.234;7.444;2024-02-28T05:36:09;3.30;99.90
31661;DHT22;18267;52.234;7.444;2024-02-28T05:38:35;3.30;99.90
31661;DHT22;18267;52.234;7.444;2024-02-28T05:41:00;3.30;99.90
31661;DHT22;18267;52.234;7.444;2024-02-28T05:43:26;3.20;99.90
31661;DHT22;18267;52.234;7.444;2024-02-28T05:45:52;3.30;99.90
31661;DHT22;18267;52.234;7.444;2024-02-28T05:48:18;3.40;99.90
31661;DHT22;18267;52.234;7.444;2024-02-28T05:50:44;3.20;99.90
31661;DHT22;18267;52.234;7.444;2024-02-28T05:53:09;3.20;99.90
31661;DHT22;18267;52.234;7.444;2024-02-28T05:55:35;3.10;99.90
31661;DHT22;18267;52.234;7.444;2024-02-28T05:58:00;3.10;99.90
31661;DHT22;18267;52.234;7.444;2024-02-28T06:00:27;3.20;99.90
31661;DHT22;18267;52.234;7.444;2024-02-28T06:02:53;3.20;99.90
31661;DHT22;18267;52.234;7.444;2024-02-28T06:05:19;3.30;99.90
31661;DHT22;18267;52.234;7.444;2024-02-28T06:07:45;3.30;99.90
31661;DHT22;18267;52.234;7.444;2024-02-28T06:10:10;3.40;99.90
31661;DHT22;18267;52.234;7.444;2024-02-28T06:12:36;3.40;99.90
31661;DHT22;18267;52.234;7.444;2024-02-28T06:15:02;3.40;99.90
31661;DHT22;18267;52.234;7.444;2024-02-28T06:17:28;3.40;99.90
31661;DHT22;18267;52.234;7.444;2024-02-28T06:19:53;3.40;99.90
31661;DHT22;18267;52.234;7.444;2024-02-28T06:22:19;3.30;99.90
31661;DHT22;18267;52.234;7.444;2024-02-28T06:24:45;3.40;99.90
31661;DHT22;18267;52.234;7.444;2024-02-28T06:27:11;3.40;99.90
31661;DHT22;18267;52.234;7.444;2024-02-28T06:29:41;3.40;99.90
31661;DHT22;18267;52.234;7.444;2024-02-28T06:32:07;3.50;99.90
31661;DHT22;18267;52.234;7.444;2024-02-28T06:34:32;3.40;99.90
31661;DHT22;18267;52.234;7.444;2024-02-28T06:36:58;3.30;99.90
31661;DHT22;18267;52.234;7.444;2024-02-28T06:39:23;3.40;99.90
31661;DHT22;18267;52.234;7.444;2024-02-28T06:41:49;3.50;99.90
31661;DHT22;18267;52.234;7.444;2024-02-28T06:44:20;3.40;99.90
31661;DHT22;18267;52.234;7.444;2024-02-28T06:46:46;3.30;99.90
31661;DHT22;18267;52.234;7.444;2024-02-28T06:49:12;3.30;99.90
31661;DHT22;18267;52.234;7.444;2024-02-28T06:51:37;3.30;99.90
31661;DHT22;18267;52.234;7.444;2024-02-28T06:54:03;3.30;99.90
31661;DHT22;18267;52.234;7.444;2024-02-28T06:56:30;3.40;99.90
31661;DHT22;18267;52.234;7.444;2024-02-28T06:58:55;3.40;99.90
31661;DHT22;18267;52.234;7.444;2024-02-28T07:01:21;3.50;99.90
31661;DHT22;18267;52.234;7.444;2024-02-28T07:03:47;3.50;99.90
31661;DHT22;18267;52.234;7.444;2024-02-28T07:06:12;3.50;99.90
31661;DHT22;18267;52.234;7.444;2024-02-28T07:08:38;3.50;99.90
31661;DHT22;18267;52.234;7.444;2024-02-28T07:11:03;3.60;99.90
31661;DHT22;18267;52.234;7.444;2024-02-28T07:13:29;3.60;99.90
31661;DHT22;18267;52.234;7.444;2024-02-28T07:15:55;3.60;99.90
31661;DHT22;18267;52.234;7.444;2024-02-28T07:18:23;3.60;99.90
31661;DHT22;18267;52.234;7.444;2024-02-28T07:20:51;3.70;99.90
31661;DHT22;18267;52.234;7.444;2024-02-28T07:23:18;3.70;99.90
31661;DHT22;18267;52.234;7.444;2024-02-28T07:25:44;3.60;99.90
31661;DHT22;18267;52.234;7.444;2024-02-28T07:28:10;3.60;99.90
31661;DHT22;18267;52.234;7.444;2024-02-28T07:30:37;3.60;99.90
31661;DHT22;18267;52.234;7.444;2024-02-28T07:33:05;3.60;99.90
31661;DHT22;18267;52.234;7.444;2024-02-28T07:35:31;3.60;99.90
31661;DHT22;18267;52.234;7.444;2024-02-28T07:37:56;3.50;99.90
31661;DHT22;18267;52.234;7.444;2024-02-28T07:40:22;3.50;99.90
31661;DHT22;18267;52.234;7.444;2024-02-28T07:42:48;3.60;99.90
31661;DHT22;18267;52.234;7.444;2024-02-28T07:45:13;3.50;99.90
31661;DHT22;18267;52.234;7.444;2024-02-28T07:47:39;3.50;99.90
31661;DHT22;18267;52.234;7.444;2024-02-28T07:50:06;3.70;99.90
31661;DHT22;18267;52.234;7.444;2024-02-28T07:52:32;3.60;99.90
31661;DHT22;18267;52.234;7.444;2024-02-28T07:55:00;3.50;99.90
31661;DHT22;18267;52.234;7.444;2024-02-28T07:57:26;3.50;99.90
31661;DHT22;18267;52.234;7.444;2024-02-28T07:59:52;3.40;99.90
31661;DHT22;18267;52.234;7.444;2024-02-28T08:02:17;3.30;99.90
31661;DHT22;18267;52.234;7.444;2024-02-28T08:04:45;3.40;99.90
31661;DHT22;18267;52.234;7.444;2024-02-28T08:07:10;3.50;99.90
31661;DHT22;18267;52.234;7.444;2024-02-28T08:09:36;3.60;99.90
31661;DHT22;18267;52.234;7.444;2024-02-28T08:12:02;3.60;99.90
31661;DHT22;18267;52.234;7.444;2024-02-28T08:14:27;3.60;99.90
31661;DHT22;18267;52.234;7.444;2024-02-28T08:16:53;3.60;99.90
31661;DHT22;18267;52.234;7.444;2024-02-28T08:19:19;3.60;99.90
31661;DHT22;18267;52.234;7.444;2024-02-28T08:21:45;3.70;99.90
31661;DHT22;18267;52.234;7.444;2024-02-28T08:24:10;3.80;99.90
31661;DHT22;18267;52.234;7.444;2024-02-28T08:26:36;3.70;99.90
31661;DHT22;18267;52.234;7.444;2024-02-28T08:29:01;3.70;99.90
31661;DHT22;18267;52.234;7.444;2024-02-28T08:31:28;3.70;99.90
31661;DHT22;18267;52.234;7.444;2024-02-28T08:33:53;3.70;99.90
31661;DHT22;18267;52.234;7.444;2024-02-28T08:36:20;3.70;99.90
31661;DHT22;18267;52.234;7.444;2024-02-28T08:38:46;3.90;99.90
31661;DHT22;18267;52.234;7.444;2024-02-28T08:41:11;4.00;99.90
31661;DHT22;18267;52.234;7.444;2024-02-28T08:43:41;4.10;99.90
31661;DHT22;18267;52.234;7.444;2024-02-28T08:46:06;4.20;99.90
31661;DHT22;18267;52.234;7.444;2024-02-28T08:48:33;4.20;99.90
31661;DHT22;18267;52.234;7.444;2024-02-28T08:50:58;4.20;99.90
31661;DHT22;18267;52.234;7.444;2024-02-28T08:53:24;4.30;99.90
31661;DHT22;18267;52.234;7.444;2024-02-28T08:55:50;4.40;99.90
31661;DHT22;18267;52.234;7.444;2024-02-28T08:58:15;4.40;99.90
31661;DHT22;18267;52.234;7.444;2024-02-28T09:00:41;4.40;99.90
31661;DHT22;18267;52.234;7.444;2024-02-28T09:03:06;4.60;99.90
31661;DHT22;18267;52.234;7.444;2024-02-28T09:05:32;4.80;99.90
31661;DHT22;18267;52.234;7.444;2024-02-28T09:07:57;4.90;99.90
31661;DHT22;18267;52.234;7.444;2024-02-28T09:10:23;5.00;99.90
31661;DHT22;18267;52.234;7.444;2024-02-28T09:12:50;5.00;99.90
31661;DHT22;18267;52.234;7.444;2024-02-28T09:15:16;5.00;99.90
31661;DHT22;18267;52.234;7.444;2024-02-28T09:17:41;5.20;99.90
31661;DHT22;18267;52.234;7.444;2024-02-28T09:20:07;5.10;99.90
31661;DHT22;18267;52.234;7.444;2024-02-28T09:22:33;5.10;99.90
31661;DHT22;18267;52.234;7.444;2024-02-28T09:25:00;5.20;99.90
31661;DHT22;18267;52.234;7.444;2024-02-28T09:27:28;5.30;99.90
31661;DHT22;18267;52.234;7.444;2024-02-28T09:29:53;5.30;99.90
31661;DHT22;18267;52.234;7.444;2024-02-28T09:32:19;5.50;99.90
31661;DHT22;18267;52.234;7.444;2024-02-28T09:34:44;5.50;99.90
31661;DHT22;18267;52.234;7.444;2024-02-28T09:37:10;5.60;99.90
31661;DHT22;18267;52.234;7.444;2024-02-28T09:39:38;5.70;99.90
31661;DHT22;18267;52.234;7.444;2024-02-28T09:42:06;5.80;99.90
31661;DHT22;18267;52.234;7.444;2024-02-28T09:44:34;5.80;99.90
31661;DHT22;18267;52.234;7.444;2024-02-28T09:47:00;5.90;99.90
31661;DHT22;18267;52.234;7.444;2024-02-28T09:49:26;5.80;99.90
31661;DHT22;18267;52.234;7.444;2024-02-28T09:51:54;5.90;99.90
31661;DHT22;18267;52.234;7.444;2024-02-28T09:54:21;5.90;99.90
31661;DHT22;18267;52.234;7.444;2024-02-28T09:56:48;5.90;99.90
31661;DHT22;18267;52.234;7.444;2024-02-28T09:59:15;5.80;99.90
31661;DHT22;18267;52.234;7.444;2024-02-28T10:01:47;5.80;99.90
31661;DHT22;18267;52.234;7.444;2024-02-28T10:04:17;5.80;99.90
31661;DHT22;18267;52.234;7.444;2024-02-28T10:06:43;5.90;99.90
31661;DHT22;18267;52.234;7.444;2024-02-28T10:09:08;6.10;99.90
31661;DHT22;18267;52.234;7.444;2024-02-28T10:11:36;6.30;99.90
31661;DHT22;18267;52.234;7.444;2024-02-28T10:14:02;6.50;99.90
31661;DHT22;18267;52.234;7.444;2024-02-28T10:16:29;6.60;99.90
31661;DHT22;18267;52.234;7.444;2024-02-28T10:18:54;6.70;99.90
31661;DHT22;18267;52.234;7.444;2024-02-28T10:21:21;6.80;99.90
31661;DHT22;18267;52.234;7.444;2024-02-28T10:23:47;6.80;99.90
31661;DHT22;18267;52.234;7.444;2024-02-28T10:26:14;6.90;99.90
31661;DHT22;18267;52.234;7.444;2024-02-28T10:28:40;7.10;99.90
31661;DHT22;18267;52.234;7.444;2024-02-28T10:31:06;7.10;99.90
31661;DHT22;18267;52.234;7.444;2024-02-28T10:33:36;7.20;99.90
31661;DHT22;18267;52.234;7.444;2024-02-28T10:36:05;7.20;99.90
31661;DHT22;18267;52.234;7.444;2024-02-28T10:38:31;7.30;99.90
31661;DHT22;18267;52.234;7.444;2024-02-28T10:41:02;7.40;99.90
31661;DHT22;18267;52.234;7.444;2024-02-28T10:43:28;7.40;99.90
31661;DHT22;18267;52.234;7.444;2024-02-28T10:45:57;7.40;99.90
31661;DHT22;18267;52.234;7.444;2024-02-28T10:48:27;7.20;99.90
31661;DHT22;18267;52.234;7.444;2024-02-28T10:50:53;7.20;99.90
31661;DHT22;18267;52.234;7.444;2024-02-28T10:53:38;7.30;99.90
31661;DHT22;18267;52.234;7.444;2024-02-28T10:56:09;7.40;99.90
31661;DHT22;18267;52.234;7.444;2024-02-28T10:58:37;7.50;99.90
31661;DHT22;18267;52.234;7.444;2024-02-28T11:01:08;7.60;99.90
31661;DHT22;18267;52.234;7.444;2024-02-28T11:03:33;7.60;99.90
31661;DHT22;18267;52.234;7.444;2024-02-28T11:05:59;7.70;99.90
31661;DHT22;18267;52.234;7.444;2024-02-28T11:08:28;7.70;99.90
31661;DHT22;18267;52.234;7.444;2024-02-28T11:11:04;7.70;99.90
31661;DHT22;18267;52.234;7.444;2024-02-28T11:13:30;7.70;99.90
31661;DHT22;18267;52.234;7.444;2024-02-28T11:16:16;7.60;99.90
31661;DHT22;18267;52.234;7.444;2024-02-28T11:18:48;7.60;99.90
31661;DHT22;18267;52.234;7.444;2024-02-28T11:21:18;7.60;99.90
31661;DHT22;18267;52.234;7.444;2024-02-28T11:23:46;7.60;99.90
31661;DHT22;18267;52.234;7.444;2024-02-28T11:26:13;7.60;99.90
31661;DHT22;18267;52.234;7.444;2024-02-28T11:28:38;7.60;99.90
31661;DHT22;18267;52.234;7.444;2024-02-28T11:31:05;7.70;99.90
31661;DHT22;18267;52.234;7.444;2024-02-28T11:33:30;7.70;99.90
31661;DHT22;18267;52.234;7.444;2024-02-28T11:35:58;7.80;99.90
31661;DHT22;18267;52.234;7.444;2024-02-28T11:38:27;7.90;99.90
31661;DHT22;18267;52.234;7.444;2024-02-28T11:40:53;7.80;99.90
31661;DHT22;18267;52.234;7.444;2024-02-28T11:43:21;7.90;99.90
31661;DHT22;18267;52.234;7.444;2024-02-28T11:45:46;7.90;99.90
31661;DHT22;18267;52.234;7.444;2024-02-28T11:48:16;8.00;99.90
31661;DHT22;18267;52.234;7.444;2024-02-28T11:50:42;8.00;99.90
31661;DHT22;18267;52.234;7.444;2024-02-28T11:53:08;8.10;99.90
31661;DHT22;18267;52.234;7.444;2024-02-28T11:55:34;8.20;99.90
31661;DHT22;18267;52.234;7.444;2024-02-28T11:58:00;8.30;99.90
31661;DHT22;18267;52.234;7.444;2024-02-28T12:00:25;8.40;99.90
31661;DHT22;18267;52.234;7.444;2024-02-28T12:02:51;8.50;99.90
31661;DHT22;18267;52.234;7.444;2024-02-28T12:05:19;8.60;99.90
31661;DHT22;18267;52.234;7.444;2024-02-28T12:07:45;8.60;99.90
31661;DHT22;18267;52.234;7.444;2024-02-28T12:10:11;8.60;99.90
31661;DHT22;18267;52.234;7.444;2024-02-28T12:12:39;8.60;99.90
31661;DHT22;18267;52.234;7.444;2024-02-28T12:15:05;8.70;99.90
31661;DHT22;18267;52.234;7.444;2024-02-28T12:17:31;8.70;99.90
31661;DHT22;18267;52.234;7.444;2024-02-28T12:20:00;8.70;99.90
31661;DHT22;18267;52.234;7.444;2024-02-28T12:22:26;8.90;99.90
31661;DHT22;18267;52.234;7.444;2024-02-28T12:24:52;9.00;99.90
31661;DHT22;18267;52.234;7.444;2024-02-28T12:27:17;8.90;99.90
31661;DHT22;18267;52.234;7.444;2024-02-28T12:29:43;8.90;99.90
31661;DHT22;18267;52.234;7.444;2024-02-28T12:32:09;8.90;99.90
31661;DHT22;18267;52.234;7.444;2024-02-28T12:34:35;8.80;99.90
31661;DHT22;18267;52.234;7.444;2024-02-28T12:37:01;8.80;99.90
31661;DHT22;18267;52.234;7.444;2024-02-28T12:39:27;8.80;99.90
31661;DHT22;18267;52.234;7.444;2024-02-28T12:41:53;8.80;99.90
31661;DHT22;18267;52.234;7.444;2024-02-28T12:44:18;8.70;99.90
31661;DHT22;18267;52.234;7.444;2024-02-28T12:46:44;8.60;99.90
31661;DHT22;18267;52.234;7.444;2024-02-28T12:49:10;8.60;99.90
31661;DHT22;18267;52.234;7.444;2024-02-28T12:51:43;8.60;99.90
31661;DHT22;18267;52.234;7.444;2024-02-28T12:54:11;8.50;99.90
31661;DHT22;18267;52.234;7.444;2024-02-28T12:56:38;8.50;99.90
31661;DHT22;18267;52.234;7.444;2024-02-28T12:59:05;8.40;99.90
31661;DHT22;18267;52.234;7.444;2024-02-28T13:01:34;8.50;99.90
31661;DHT22;18267;52.234;7.444;2024-02-28T13:03:59;8.40;99.90
31661;DHT22;18267;52.234;7.444;2024-02-28T13:06:25;8.50;99.90
31661;DHT22;18267;52.234;7.444;2024-02-28T13:08:50;8.40;99.90
31661;DHT22;18267;52.234;7.444;2024-02-28T13:11:20;8.40;99.90
31661;DHT22;18267;52.234;7.444;2024-02-28T13:13:47;8.30;99.90
31661;DHT22;18267;52.234;7.444;2024-02-28T13:16:13;8.40;99.90
31661;DHT22;18267;52.234;7.444;2024-02-28T13:18:38;8.40;99.90
31661;DHT22;18267;52.234;7.444;2024-02-28T13:21:04;8.40;99.90
31661;DHT22;18267;52.234;7.444;2024-02-28T13:23:30;8.30;99.90
31661;DHT22;18267;52.234;7.444;2024-02-28T13:26:00;8.20;99.90
31661;DHT22;18267;52.234;7.444;2024-02-28T13:28:26;8.10;99.90
31661;DHT22;18267;52.234;7.444;2024-02-28T13:31:04;8.10;99.90
31661;DHT22;18267;52.234;7.444;2024-02-28T13:33:29;8.10;99.90
31661;DHT22;18267;52.234;7.444;2024-02-28T13:35:55;8.10;99.90
31661;DHT22;18267;52.234;7.444;2024-02-28T13:38:21;8.10;99.90
31661;DHT22;18267;52.234;7.444;2024-02-28T13:40:48;8.00;99.90
31661;DHT22;18267;52.234;7.444;2024-02-28T13:43:15;8.00;99.90
31661;DHT22;18267;52.234;7.444;2024-02-28T13:45:46;8.00;99.90
31661;DHT22;18267;52.234;7.444;2024-02-28T13:48:18;8.00;99.90
31661;DHT22;18267;52.234;7.444;2024-02-28T13:50:44;8.00;99.90
31661;DHT22;18267;52.234;7.444;2024-02-28T13:53:12;8.10;99.90
31661;DHT22;18267;52.234;7.444;2024-02-28T13:55:38;8.10;99.90
31661;DHT22;18267;52.234;7.444;2024-02-28T13:58:04;8.10;99.90
31661;DHT22;18267;52.234;7.444;2024-02-28T14:00:30;8.10;99.90
31661;DHT22;18267;52.234;7.444;2024-02-28T14:02:56;8.10;99.90
31661;DHT22;18267;52.234;7.444;2024-02-28T14:05:21;8.10;99.90
31661;DHT22;18267;52.234;7.444;2024-02-28T14:07:48;8.10;99.90
31661;DHT22;18267;52.234;7.444;2024-02-28T14:10:14;8.00;99.90
31661;DHT22;18267;52.234;7.444;2024-02-28T14:12:41;8.00;99.90
31661;DHT22;18267;52.234;7.444;2024-02-28T14:15:07;8.00;99.90
31661;DHT22;18267;52.234;7.444;2024-02-28T14:17:34;8.10;99.90
31661;DHT22;18267;52.234;7.444;2024-02-28T14:20:00;8.00;99.90
31661;DHT22;18267;52.234;7.444;2024-02-28T14:22:26;8.00;99.90
31661;DHT22;18267;52.234;7.444;2024-02-28T14:24:51;7.90;99.90
31661;DHT22;18267;52.234;7.444;2024-02-28T14:27:17;8.00;99.90
31661;DHT22;18267;52.234;7.444;2024-02-28T14:29:44;7.90;99.90
31661;DHT22;18267;52.234;7.444;2024-02-28T14:32:10;8.00;99.90
31661;DHT22;18267;52.234;7.444;2024-02-28T14:34:36;8.00;99.90
31661;DHT22;18267;52.234;7.444;2024-02-28T14:37:01;8.00;99.90
31661;DHT22;18267;52.234;7.444;2024-02-28T14:39:27;8.10;99.90
31661;DHT22;18267;52.234;7.444;2024-02-28T14:41:52;8.20;99.90
31661;DHT22;18267;52.234;7.444;2024-02-28T14:44:19;8.20;99.90
31661;DHT22;18267;52.234;7.444;2024-02-28T14:46:45;8.10;99.90
31661;DHT22;18267;52.234;7.444;2024-02-28T14:49:10;8.10;99.90
31661;DHT22;18267;52.234;7.444;2024-02-28T14:51:36;8.20;99.90
31661;DHT22;18267;52.234;7.444;2024-02-28T14:54:02;8.10;99.90
31661;DHT22;18267;52.234;7.444;2024-02-28T14:56:28;8.10;99.90
31661;DHT22;18267;52.234;7.444;2024-02-28T14:58:55;8.10;99.90
31661;DHT22;18267;52.234;7.444;2024-02-28T15:01:21;8.10;99.90
31661;DHT22;18267;52.234;7.444;2024-02-28T15:03:47;8.20;99.90
31661;DHT22;18267;52.234;7.444;2024-02-28T15:06:14;8.20;99.90
31661;DHT22;18267;52.234;7.444;2024-02-28T15:08:39;8.20;99.90
31661;DHT22;18267;52.234;7.444;2024-02-28T15:11:05;8.20;99.90
31661;DHT22;18267;52.234;7.444;2024-02-28T15:13:31;8.20;99.90
31661;DHT22;18267;52.234;7.444;2024-02-28T15:15:57;8.20;99.90
31661;DHT22;18267;52.234;7.444;2024-02-28T15:18:23;8.20;99.90
31661;DHT22;18267;52.234;7.444;2024-02-28T15:20:49;8.10;99.90
31661;DHT22;18267;52.234;7.444;2024-02-28T15:23:15;8.10;99.90
31661;DHT22;18267;52.234;7.444;2024-02-28T15:25:42;8.00;99.90
31661;DHT22;18267;52.234;7.444;2024-02-28T15:28:08;8.10;99.90
31661;DHT22;18267;52.234;7.444;2024-02-28T15:30:33;8.00;99.90
31661;DHT22;18267;52.234;7.444;2024-02-28T15:32:59;7.90;99.90
31661;DHT22;18267;52.234;7.444;2024-02-28T15:35:25;7.90;99.90
31661;DHT22;18267;52.234;7.444;2024-02-28T15:37:51;7.90;99.90
31661;DHT22;18267;52.234;7.444;2024-02-28T15:40:17;7.90;99.90